Time;durP1;ratioP1;P1;durP2;ratioP2;P2;SDS_P1;SDS_P2;PMS_P1;PMS_P2;Temp;Humidity;BMP_temperature;BMP_pressure;BME280_temperature;BME280_humidity;BME280_pressure;Samples;Min_cycle;Max_cycle;Signal;HPM_P1;HPM_P2
2023/03/30 00:00:45;;;;;;;2.03;0.50;;;;;;;;;;5284613;28;20028;-71
2023/03/30 00:03:18;;;;;;;2.53;0.50;;;;;;;;;;5285796;28;20275;-70
2023/03/30 00:05:50;;;;;;;4.10;0.50;;;;;;;;;;5285066;28;20035;-71
2023/03/30 00:08:27;;;;;;;2.33;0.50;;;;;;;;;;5284994;28;20039;-70
2023/03/30 00:10:59;;;;;;;4.50;0.60;;;;;;;;;;5284989;28;20450;-70
2023/03/30 00:13:31;;;;;;;3.72;0.50;;;;;;;;;;5285315;28;20031;-71
2023/03/30 00:16:03;;;;;;;3.03;0.50;;;;;;;;;;5284399;28;20028;-70
2023/03/30 00:18:35;;;;;;;2.55;0.50;;;;;;;;;;5285076;28;20483;-71
2023/03/30 00:21:08;;;;;;;3.25;0.50;;;;;;;;;;5285230;28;20023;-70
2023/03/30 00:23:39;;;;;;;2.78;0.50;;;;;;;;;;5284001;28;20059;-70
2023/03/30 00:26:11;;;;;;;3.72;0.50;;;;;;;;;;5285303;28;20439;-70
2023/03/30 00:28:43;;;;;;;2.05;0.43;;;;;;;;;;5283728;28;20047;-70
2023/03/30 00:31:14;;;;;;;1.83;0.50;;;;;;;;;;5285175;28;20012;-70
2023/03/30 00:33:45;;;;;;;4.67;0.60;;;;;;;;;;5284572;28;20016;-70
2023/03/30 00:36:16;;;;;;;1.75;0.40;;;;;;;;;;5284493;28;20796;-70
2023/03/30 00:38:48;;;;;;;1.85;0.50;;;;;;;;;;5284491;28;20020;-70
2023/03/30 00:41:19;;;;;;;2.58;0.50;;;;;;;;;;5284285;28;20070;-70
2023/03/30 00:43:58;;;;;;;3.47;0.50;;;;;;;;;;5282461;28;20115;-70
2023/03/30 00:46:30;;;;;;;1.42;0.43;;;;;;;;;;5284724;28;20475;-70
2023/03/30 00:49:04;;;;;;;2.30;0.40;;;;;;;;;;5284548;28;20031;-70
2023/03/30 00:51:36;;;;;;;2.60;0.60;;;;;;;;;;5284077;28;20486;-70
2023/03/30 00:54:11;;;;;;;2.72;0.40;;;;;;;;;;5284504;28;20457;-70
2023/03/30 00:56:43;;;;;;;4.22;0.47;;;;;;;;;;5284180;28;20017;-70
2023/03/30 00:59:14;;;;;;;3.35;0.60;;;;;;;;;;5283848;28;20436;-70
2023/03/30 01:01:49;;;;;;;1.65;0.40;;;;;;;;;;5284032;28;20348;-70
2023/03/30 01:04:20;;;;;;;3.45;0.43;;;;;;;;;;5283627;28;20028;-70
2023/03/30 01:06:54;;;;;;;4.27;0.57;;;;;;;;;;5283894;28;20022;-70
2023/03/30 01:09:25;;;;;;;1.15;0.40;;;;;;;;;;5284488;28;20282;-69
2023/03/30 01:11:56;;;;;;;2.88;0.43;;;;;;;;;;5283082;28;20178;-70
2023/03/30 01:14:27;;;;;;;2.80;0.47;;;;;;;;;;5284422;28;20018;-70
2023/03/30 01:17:07;;;;;;;3.03;0.50;;;;;;;;;;5283722;28;20024;-70
2023/03/30 01:19:57;;;;;;;4.03;0.50;;;;;;;;;;5283140;28;20020;-70
2023/03/30 01:22:48;;;;;;;3.08;0.40;;;;;;;;;;5284193;28;20025;-70
2023/03/30 01:25:38;;;;;;;3.45;0.65;;;;;;;;;;5283257;28;20035;-71
2023/03/30 01:28:13;;;;;;;3.40;0.50;;;;;;;;;;5284126;28;20097;-70
2023/03/30 01:30:59;;;;;;;5.75;0.82;;;;;;;;;;5283343;28;20103;-70
2023/03/30 01:33:43;;;;;;;2.03;0.40;;;;;;;;;;5282685;28;20098;-70
2023/03/30 01:36:29;;;;;;;4.38;0.70;;;;;;;;;;5284046;28;20040;-70
2023/03/30 01:39:21;;;;;;;5.35;0.57;;;;;;;;;;5282721;28;20031;-70
2023/03/30 01:42:01;;;;;;;3.67;0.50;;;;;;;;;;5283060;28;20021;-72
2023/03/30 01:44:42;;;;;;;4.13;0.50;;;;;;;;;;5283564;28;20070;-70
2023/03/30 01:47:25;;;;;;;3.55;0.80;;;;;;;;;;5282795;28;20073;-70
2023/03/30 01:50:00;;;;;;;2.38;0.40;;;;;;;;;;5283142;28;20075;-71
2023/03/30 01:52:37;;;;;;;2.15;0.40;;;;;;;;;;5283110;28;20148;-71
2023/03/30 01:55:11;;;;;;;2.00;0.40;;;;;;;;;;5282485;28;20426;-70
2023/03/30 01:57:45;;;;;;;3.38;0.47;;;;;;;;;;5282800;28;20378;-71
2023/03/30 02:00:19;;;;;;;2.85;0.50;;;;;;;;;;5282432;28;20021;-71
2023/03/30 02:02:53;;;;;;;1.20;0.40;;;;;;;;;;5282664;28;20478;-70
2023/03/30 02:05:26;;;;;;;1.92;0.50;;;;;;;;;;5283824;28;20534;-71
2023/03/30 02:08:03;;;;;;;2.13;0.50;;;;;;;;;;5281958;28;20034;-71
2023/03/30 02:10:35;;;;;;;2.33;0.40;;;;;;;;;;5282983;28;20070;-71
2023/03/30 02:13:07;;;;;;;1.38;0.30;;;;;;;;;;5282714;28;20056;-71
2023/03/30 02:15:43;;;;;;;2.05;0.40;;;;;;;;;;5281824;28;20437;-71
2023/03/30 02:18:15;;;;;;;4.63;0.50;;;;;;;;;;5283161;28;20544;-71
2023/03/30 02:20:46;;;;;;;1.50;0.40;;;;;;;;;;5282405;28;20012;-71
2023/03/30 02:23:19;;;;;;;3.58;0.40;;;;;;;;;;5282232;28;20111;-70
2023/03/30 02:25:50;;;;;;;2.22;0.40;;;;;;;;;;5282192;28;20013;-70
2023/03/30 02:28:21;;;;;;;1.47;0.40;;;;;;;;;;5282125;28;20090;-72
2023/03/30 02:30:53;;;;;;;4.15;0.50;;;;;;;;;;5282258;28;20290;-70
2023/03/30 02:33:32;;;;;;;2.72;0.50;;;;;;;;;;5282850;28;20459;-70
2023/03/30 02:36:24;;;;;;;3.50;0.43;;;;;;;;;;5281612;28;20021;-70
2023/03/30 02:39:04;;;;;;;4.20;0.60;;;;;;;;;;5282056;28;20095;-70
2023/03/30 02:41:51;;;;;;;3.55;0.60;;;;;;;;;;5282423;28;20017;-70
2023/03/30 02:44:25;;;;;;;2.63;0.50;;;;;;;;;;5281689;28;20067;-70
2023/03/30 02:47:00;;;;;;;5.63;0.60;;;;;;;;;;5281936;28;20075;-71
2023/03/30 02:49:40;;;;;;;5.10;0.50;;;;;;;;;;5281555;28;20040;-71
2023/03/30 02:52:25;;;;;;;2.47;0.40;;;;;;;;;;5282378;28;20127;-71
2023/03/30 02:55:08;;;;;;;4.22;0.50;;;;;;;;;;5282086;28;20027;-71
2023/03/30 02:57:53;;;;;;;4.65;0.40;;;;;;;;;;5280874;28;20024;-71
2023/03/30 03:00:27;;;;;;;3.60;0.50;;;;;;;;;;5282548;28;20017;-71
2023/03/30 03:03:01;;;;;;;3.92;0.60;;;;;;;;;;5281841;28;20020;-71
2023/03/30 03:05:32;;;;;;;3.50;0.55;;;;;;;;;;5280801;28;20020;-71
2023/03/30 03:08:04;;;;;;;2.17;0.40;;;;;;;;;;5282234;28;20029;-71
2023/03/30 03:10:36;;;;;;;2.22;0.50;;;;;;;;;;5281371;28;20467;-71
2023/03/30 03:13:07;;;;;;;2.90;0.40;;;;;;;;;;5282054;28;20074;-71
2023/03/30 03:15:39;;;;;;;3.72;0.40;;;;;;;;;;5281452;28;20263;-71
2023/03/30 03:18:11;;;;;;;1.42;0.30;;;;;;;;;;5281427;28;20020;-71
2023/03/30 03:20:43;;;;;;;1.80;0.38;;;;;;;;;;5281834;28;20455;-71
2023/03/30 03:23:14;;;;;;;4.30;0.38;;;;;;;;;;5282108;28;20023;-71
2023/03/30 03:25:47;;;;;;;3.13;0.45;;;;;;;;;;5280863;28;20149;-72
2023/03/30 03:28:18;;;;;;;2.80;0.50;;;;;;;;;;5282109;28;20028;-71
2023/03/30 03:30:49;;;;;;;1.63;0.40;;;;;;;;;;5281591;28;20013;-71
2023/03/30 03:33:20;;;;;;;3.80;0.50;;;;;;;;;;5281331;28;20035;-71
2023/03/30 03:35:52;;;;;;;3.95;0.50;;;;;;;;;;5281537;28;20069;-71
2023/03/30 03:38:24;;;;;;;2.47;0.40;;;;;;;;;;5281949;28;20017;-71
2023/03/30 03:40:57;;;;;;;2.60;0.60;;;;;;;;;;5280440;28;20017;-70
2023/03/30 03:43:28;;;;;;;5.68;0.50;;;;;;;;;;5281740;28;20024;-70
2023/03/30 03:45:59;;;;;;;3.45;0.35;;;;;;;;;;5280664;28;20495;-70
2023/03/30 03:48:30;;;;;;;4.32;0.52;;;;;;;;;;5281491;28;20107;-70
2023/03/30 03:51:02;;;;;;;4.60;0.40;;;;;;;;;;5281443;28;20017;-70
2023/03/30 03:53:33;;;;;;;3.42;0.45;;;;;;;;;;5280593;28;20045;-71
2023/03/30 03:56:04;;;;;;;2.60;0.40;;;;;;;;;;5281484;28;20108;-70
2023/03/30 03:58:35;;;;;;;2.05;0.50;;;;;;;;;;5281709;28;20417;-71
2023/03/30 04:01:06;;;;;;;3.87;0.30;;;;;;;;;;5280821;28;20074;-70
2023/03/30 04:03:39;;;;;;;2.13;0.40;;;;;;;;;;5280928;28;20385;-71
2023/03/30 04:06:11;;;;;;;2.65;0.40;;;;;;;;;;5281898;28;20096;-70
2023/03/30 04:08:42;;;;;;;2.05;0.40;;;;;;;;;;5280282;28;20044;-70
2023/03/30 04:11:13;;;;;;;2.28;0.47;;;;;;;;;;5281746;28;20134;-71
2023/03/30 04:13:44;;;;;;;1.23;0.30;;;;;;;;;;5280382;28;20013;-72
2023/03/30 04:16:16;;;;;;;1.85;0.30;;;;;;;;;;5282259;28;20273;-70
2023/03/30 04:18:47;;;;;;;1.25;0.30;;;;;;;;;;5285070;28;20471;-70
2023/03/30 04:21:19;;;;;;;4.90;0.40;;;;;;;;;;5284653;28;20130;-70
2023/03/30 04:23:50;;;;;;;4.30;0.47;;;;;;;;;;5284649;28;20047;-71
2023/03/30 04:26:21;;;;;;;4.07;0.30;;;;;;;;;;5285657;28;20104;-70
2023/03/30 04:28:52;;;;;;;1.88;0.38;;;;;;;;;;5283460;28;20290;-71
2023/03/30 04:31:23;;;;;;;2.95;0.40;;;;;;;;;;5285200;28;20449;-71
2023/03/30 04:33:55;;;;;;;2.90;0.40;;;;;;;;;;5284549;28;20070;-70
2023/03/30 04:36:26;;;;;;;2.60;0.50;;;;;;;;;;5284296;28;20546;-71
2023/03/30 04:38:58;;;;;;;2.38;0.40;;;;;;;;;;5284451;28;20085;-70
2023/03/30 04:41:33;;;;;;;2.10;0.40;;;;;;;;;;5284851;28;20430;-70
2023/03/30 04:44:05;;;;;;;2.50;0.45;;;;;;;;;;5283986;28;20024;-70
2023/03/30 04:46:37;;;;;;;1.90;0.38;;;;;;;;;;5284330;28;20020;-71
2023/03/30 04:49:08;;;;;;;2.80;0.50;;;;;;;;;;5283693;28;20475;-71
2023/03/30 04:51:41;;;;;;;1.55;0.30;;;;;;;;;;5283987;28;20051;-71
2023/03/30 04:54:12;;;;;;;2.90;0.30;;;;;;;;;;5284905;28;20356;-71
2023/03/30 04:56:43;;;;;;;2.00;0.30;;;;;;;;;;5283483;28;20029;-71
2023/03/30 04:59:15;;;;;;;4.43;0.40;;;;;;;;;;5284718;28;20016;-71
2023/03/30 05:01:46;;;;;;;3.28;0.40;;;;;;;;;;5283982;28;20483;-71
2023/03/30 05:04:17;;;;;;;3.07;0.40;;;;;;;;;;5283827;28;20036;-71
2023/03/30 05:06:48;;;;;;;2.83;0.50;;;;;;;;;;5284074;28;20297;-71
2023/03/30 05:09:20;;;;;;;1.88;0.40;;;;;;;;;;5284468;28;20302;-71
2023/03/30 05:11:51;;;;;;;3.28;0.30;;;;;;;;;;5282972;28;20024;-71
2023/03/30 05:14:22;;;;;;;2.63;0.43;;;;;;;;;;5284353;28;20016;-70
2023/03/30 05:16:54;;;;;;;2.72;0.50;;;;;;;;;;5283788;28;20263;-71
2023/03/30 05:19:25;;;;;;;3.03;0.60;;;;;;;;;;5283366;28;20025;-70
2023/03/30 05:21:56;;;;;;;3.65;0.75;;;;;;;;;;5283719;28;20094;-71
2023/03/30 05:24:27;;;;;;;3.20;0.70;;;;;;;;;;5283158;28;20036;-71
2023/03/30 05:26:58;;;;;;;2.78;0.60;;;;;;;;;;5283437;28;20378;-70
2023/03/30 05:29:30;;;;;;;2.50;0.63;;;;;;;;;;5282838;28;20029;-70
2023/03/30 05:32:01;;;;;;;3.03;0.60;;;;;;;;;;5282495;28;20085;-70
2023/03/30 05:34:32;;;;;;;3.92;0.60;;;;;;;;;;5283044;28;20024;-71
2023/03/30 05:37:04;;;;;;;3.85;0.70;;;;;;;;;;5283581;28;20045;-70
2023/03/30 05:39:35;;;;;;;2.00;0.63;;;;;;;;;;5282637;28;20116;-70
2023/03/30 05:42:06;;;;;;;3.28;0.68;;;;;;;;;;5283343;28;20274;-69
2023/03/30 05:44:38;;;;;;;4.97;0.70;;;;;;;;;;5283083;28;20364;-70
2023/03/30 05:47:09;;;;;;;2.47;0.75;;;;;;;;;;5282443;28;20112;-70
2023/03/30 05:49:40;;;;;;;2.70;0.60;;;;;;;;;;5282777;28;20028;-69
2023/03/30 05:52:12;;;;;;;12.82;0.98;;;;;;;;;;5282901;28;20290;-69
2023/03/30 05:54:43;;;;;;;4.75;0.88;;;;;;;;;;5283241;28;20021;-69
2023/03/30 05:57:14;;;;;;;5.23;0.93;;;;;;;;;;5283570;28;20082;-69
2023/03/30 05:59:46;;;;;;;5.22;0.80;;;;;;;;;;5281891;28;20267;-69
2023/03/30 06:02:18;;;;;;;5.35;0.73;;;;;;;;;;5283036;28;20073;-69
2023/03/30 06:04:49;;;;;;;3.00;0.65;;;;;;;;;;5282631;28;20017;-70
2023/03/30 06:07:21;;;;;;;4.18;0.80;;;;;;;;;;5282520;28;20032;-69
2023/03/30 06:09:52;;;;;;;2.80;0.80;;;;;;;;;;5281761;28;20055;-70
2023/03/30 06:12:23;;;;;;;4.38;1.08;;;;;;;;;;5282877;28;20021;-69
2023/03/30 06:14:55;;;;;;;4.97;0.88;;;;;;;;;;5281557;28;20021;-70
2023/03/30 06:17:26;;;;;;;7.90;1.25;;;;;;;;;;5283141;28;20055;-70
2023/03/30 06:19:57;;;;;;;5.38;0.70;;;;;;;;;;5282521;28;20029;-69
2023/03/30 06:22:29;;;;;;;3.55;0.57;;;;;;;;;;5282240;28;20012;-69
2023/03/30 06:25:00;;;;;;;4.68;0.85;;;;;;;;;;5282096;28;20274;-69
2023/03/30 06:27:31;;;;;;;5.25;0.75;;;;;;;;;;5281631;28;20388;-69
2023/03/30 06:30:03;;;;;;;4.97;0.70;;;;;;;;;;5281993;28;20047;-69
2023/03/30 06:32:34;;;;;;;5.95;1.02;;;;;;;;;;5282182;28;20375;-71
2023/03/30 06:35:06;;;;;;;4.13;1.08;;;;;;;;;;5281694;28;20091;-69
2023/03/30 06:37:37;;;;;;;8.32;0.80;;;;;;;;;;5277315;28;20032;-70
2023/03/30 06:40:12;;;;;;;6.10;0.60;;;;;;;;;;5281288;28;20020;-69
2023/03/30 06:42:43;;;;;;;6.07;1.38;;;;;;;;;;5280458;28;20015;-71
2023/03/30 06:45:15;;;;;;;7.78;1.23;;;;;;;;;;5281748;28;20558;-70
2023/03/30 06:47:46;;;;;;;5.78;1.15;;;;;;;;;;5281127;28;20016;-69
2023/03/30 06:50:18;;;;;;;5.82;0.80;;;;;;;;;;5280839;28;20024;-69
2023/03/30 06:52:49;;;;;;;5.72;0.68;;;;;;;;;;5280862;28;20388;-70
2023/03/30 06:55:20;;;;;;;3.78;0.68;;;;;;;;;;5281854;28;20032;-70
2023/03/30 06:57:51;;;;;;;4.15;0.80;;;;;;;;;;5280697;28;20009;-70
2023/03/30 07:00:23;;;;;;;3.60;0.60;;;;;;;;;;5281772;28;20052;-70
2023/03/30 07:02:54;;;;;;;4.47;0.57;;;;;;;;;;5280535;28;20266;-71
2023/03/30 07:05:28;;;;;;;5.07;0.50;;;;;;;;;;5281989;28;20063;-70
2023/03/30 07:08:00;;;;;;;4.88;0.60;;;;;;;;;;5279561;28;20050;-71
2023/03/30 07:10:31;;;;;;;3.08;0.40;;;;;;;;;;5281091;28;20017;-71
2023/03/30 07:13:02;;;;;;;4.07;0.70;;;;;;;;;;5281626;28;20058;-71
2023/03/30 07:15:33;;;;;;;4.53;0.50;;;;;;;;;;5281684;28;20032;-71
2023/03/30 07:18:04;;;;;;;5.60;0.80;;;;;;;;;;5280719;28;20605;-70
2023/03/30 07:20:36;;;;;;;3.37;0.40;;;;;;;;;;5281696;28;20039;-71
2023/03/30 07:23:07;;;;;;;4.47;0.70;;;;;;;;;;5281705;28;20261;-70
2023/03/30 07:25:40;;;;;;;4.22;0.50;;;;;;;;;;5280553;28;20024;-70
2023/03/30 07:28:12;;;;;;;5.32;0.55;;;;;;;;;;5281988;28;20021;-69
2023/03/30 07:30:44;;;;;;;3.28;0.50;;;;;;;;;;5280313;28;20532;-71
2023/03/30 07:33:16;;;;;;;3.15;0.50;;;;;;;;;;5281897;28;20028;-70
2023/03/30 07:35:48;;;;;;;4.07;0.60;;;;;;;;;;5281106;28;20040;-69
2023/03/30 07:38:20;;;;;;;6.40;0.90;;;;;;;;;;5280937;28;20341;-70
2023/03/30 07:40:51;;;;;;;5.63;0.70;;;;;;;;;;5281471;28;20063;-69
2023/03/30 07:43:22;;;;;;;6.47;0.80;;;;;;;;;;5281819;28;20023;-69
2023/03/30 07:45:54;;;;;;;7.22;0.90;;;;;;;;;;5280262;28;20046;-70
2023/03/30 07:48:25;;;;;;;5.80;0.80;;;;;;;;;;5281706;28;20467;-69
2023/03/30 07:51:05;;;;;;;6.45;0.82;;;;;;;;;;5281106;28;21177;-69
2023/03/30 07:53:37;;;;;;;8.63;0.77;;;;;;;;;;5284793;28;20066;-69
2023/03/30 07:56:08;;;;;;;6.65;0.75;;;;;;;;;;5285645;28;20024;-68
2023/03/30 07:58:39;;;;;;;6.10;0.90;;;;;;;;;;5285022;28;20017;-68
2023/03/30 08:01:12;;;;;;;6.07;0.82;;;;;;;;;;5284975;28;20016;-69
2023/03/30 08:03:47;;;;;;;8.25;0.75;;;;;;;;;;5285266;28;20051;-69
2023/03/30 08:06:18;;;;;;;5.47;0.70;;;;;;;;;;5284521;28;20028;-69
2023/03/30 08:08:49;;;;;;;9.33;0.80;;;;;;;;;;5284833;28;20032;-70
2023/03/30 08:11:21;;;;;;;8.85;1.50;;;;;;;;;;5285420;28;20920;-69
2023/03/30 08:13:52;;;;;;;7.18;0.70;;;;;;;;;;5284360;28;20017;-70
2023/03/30 08:16:23;;;;;;;5.03;0.80;;;;;;;;;;5285398;28;20013;-70
2023/03/30 08:18:55;;;;;;;8.17;0.80;;;;;;;;;;5284733;28;20361;-69
2023/03/30 08:21:26;;;;;;;9.50;0.90;;;;;;;;;;5283149;28;20267;-69
2023/03/30 08:23:58;;;;;;;6.95;0.90;;;;;;;;;;5282345;28;20024;-69
2023/03/30 08:26:29;;;;;;;8.10;0.90;;;;;;;;;;5283155;28;20027;-70
2023/03/30 08:29:01;;;;;;;5.88;0.80;;;;;;;;;;5281903;28;20041;-69
2023/03/30 08:31:32;;;;;;;5.80;1.08;;;;;;;;;;5282704;28;20017;-70
2023/03/30 08:34:03;;;;;;;11.93;1.27;;;;;;;;;;5281850;28;20017;-69
2023/03/30 08:36:34;;;;;;;13.25;1.70;;;;;;;;;;5284139;28;20267;-69
2023/03/30 08:39:05;;;;;;;9.32;1.00;;;;;;;;;;5284763;28;20025;-71
2023/03/30 08:41:46;;;;;;;8.48;0.80;;;;;;;;;;5284144;28;20020;-69
2023/03/30 08:44:37;;;;;;;7.32;0.90;;;;;;;;;;5284876;28;20024;-69
2023/03/30 08:47:32;;;;;;;10.27;1.17;;;;;;;;;;5284661;28;20027;-70
2023/03/30 08:50:15;;;;;;;7.15;1.00;;;;;;;;;;5277497;28;20391;-70
2023/03/30 08:52:46;;;;;;;7.60;0.80;;;;;;;;;;5283921;28;20094;-70
2023/03/30 08:55:36;;;;;;;8.70;0.95;;;;;;;;;;5283738;28;20016;-70
2023/03/30 08:58:19;;;;;;;9.18;1.15;;;;;;;;;;5284427;28;20103;-70
2023/03/30 09:00:54;;;;;;;7.93;1.23;;;;;;;;;;5284131;28;20027;-70
2023/03/30 09:03:28;;;;;;;9.23;1.10;;;;;;;;;;5282384;28;20024;-69
2023/03/30 09:06:04;;;;;;;6.25;0.77;;;;;;;;;;5283900;28;20486;-71
2023/03/30 09:08:35;;;;;;;6.35;0.88;;;;;;;;;;5284043;28;20024;-71
2023/03/30 09:11:11;;;;;;;8.05;1.08;;;;;;;;;;5282696;28;20228;-70
2023/03/30 09:13:45;;;;;;;9.40;1.08;;;;;;;;;;5283623;28;20028;-70
2023/03/30 09:16:34;;;;;;;6.60;1.00;;;;;;;;;;5283430;28;20009;-70
2023/03/30 09:19:11;;;;;;;7.75;0.88;;;;;;;;;;5284163;28;20060;-70
2023/03/30 09:21:43;;;;;;;9.60;1.33;;;;;;;;;;5283689;28;20404;-69
2023/03/30 09:24:17;;;;;;;8.98;1.17;;;;;;;;;;5281693;28;20103;-70
2023/03/30 09:26:56;;;;;;;6.97;1.55;;;;;;;;;;5281267;28;20013;-69
2023/03/30 09:29:30;;;;;;;11.20;1.35;;;;;;;;;;5281611;28;20028;-70
2023/03/30 09:32:05;;;;;;;10.23;1.17;;;;;;;;;;5280817;28;20016;-70
2023/03/30 09:34:44;;;;;;;11.27;1.15;;;;;;;;;;5281408;28;20052;-69
2023/03/30 09:37:17;;;;;;;;;;;;;;;;;;5281443;28;20044;-69
2023/03/30 09:39:49;;;;;;;9.52;1.67;;;;;;;;;;5282551;28;19909;-70
2023/03/30 09:42:31;;;;;;;9.43;1.50;;;;;;;;;;5283830;28;20025;-70
2023/03/30 09:45:12;;;;;;;7.18;1.13;;;;;;;;;;5282748;28;20016;-70
2023/03/30 09:47:43;;;;;;;9.90;1.20;;;;;;;;;;5283050;28;20055;-71
2023/03/30 09:50:14;;;;;;;7.03;1.03;;;;;;;;;;5283522;28;20053;-70
2023/03/30 09:53:02;;;;;;;10.20;1.85;;;;;;;;;;5281929;28;20287;-71
2023/03/30 09:55:34;;;;;;;8.88;1.38;;;;;;;;;;5282988;28;20099;-70
2023/03/30 09:58:28;;;;;;;8.90;1.20;;;;;;;;;;5283248;28;20104;-70
2023/03/30 10:01:05;;;;;;;8.27;1.38;;;;;;;;;;5277247;28;20032;-70
2023/03/30 10:03:37;;;;;;;10.88;1.48;;;;;;;;;;5283253;28;20485;-70
2023/03/30 10:06:16;;;;;;;10.82;1.83;;;;;;;;;;5282270;28;20024;-70
2023/03/30 10:08:51;;;;;;;7.63;1.00;;;;;;;;;;5282753;28;20450;-70
2023/03/30 10:11:29;;;;;;;9.73;1.40;;;;;;;;;;5283116;28;20027;-69
2023/03/30 10:14:00;;;;;;;11.38;1.63;;;;;;;;;;5281693;28;20036;-70
2023/03/30 10:16:32;;;;;;;9.40;1.33;;;;;;;;;;5282895;28;20020;-71
2023/03/30 10:19:06;;;;;;;9.18;1.55;;;;;;;;;;5282966;28;20016;-71
2023/03/30 10:21:38;;;;;;;10.80;1.40;;;;;;;;;;5281967;28;20356;-70
2023/03/30 10:24:23;;;;;;;10.63;1.60;;;;;;;;;;5282350;28;20124;-70
2023/03/30 10:26:55;;;;;;;12.35;1.92;;;;;;;;;;5281538;28;20520;-70
2023/03/30 10:29:27;;;;;;;10.57;1.80;;;;;;;;;;5282798;28;20032;-70
2023/03/30 10:32:01;;;;;;;13.77;2.45;;;;;;;;;;5282174;28;20107;-71
2023/03/30 10:34:35;;;;;;;9.95;1.65;;;;;;;;;;5281827;28;20012;-69
2023/03/30 10:37:12;;;;;;;14.95;2.00;;;;;;;;;;5282125;28;20017;-69
2023/03/30 10:39:45;;;;;;;10.80;2.20;;;;;;;;;;5281862;28;20052;-70
2023/03/30 10:42:19;;;;;;;8.07;1.33;;;;;;;;;;5282074;28;20020;-69
2023/03/30 10:44:53;;;;;;;7.63;1.10;;;;;;;;;;5281929;28;20498;-70
2023/03/30 10:47:42;;;;;;;12.23;1.65;;;;;;;;;;5282204;28;20024;-70
2023/03/30 10:50:23;;;;;;;9.30;1.10;;;;;;;;;;5282149;28;20037;-70
2023/03/30 10:52:54;;;;;;;13.07;2.25;;;;;;;;;;5281188;28;20051;-71
2023/03/30 10:55:33;;;;;;;8.88;1.45;;;;;;;;;;5281764;28;20495;-70
2023/03/30 10:58:27;;;;;;;10.25;1.40;;;;;;;;;;5281803;28;20410;-70
2023/03/30 11:01:03;;;;;;;9.02;1.60;;;;;;;;;;5281889;28;20063;-71
2023/03/30 11:03:37;;;;;;;10.27;1.42;;;;;;;;;;5281086;28;20025;-71
2023/03/30 11:06:12;;;;;;;7.38;1.52;;;;;;;;;;5281633;28;20379;-70
2023/03/30 11:08:45;;;;;;;9.23;1.20;;;;;;;;;;5280531;28;20039;-71
2023/03/30 11:11:20;;;;;;;10.48;1.40;;;;;;;;;;5281693;28;20029;-70
2023/03/30 11:13:54;;;;;;;13.02;1.42;;;;;;;;;;5281569;28;20395;-70
2023/03/30 11:16:30;;;;;;;10.05;1.30;;;;;;;;;;5281231;28;20471;-70
2023/03/30 11:19:23;;;;;;;11.00;1.70;;;;;;;;;;5281419;28;20016;-70
2023/03/30 11:22:01;;;;;;;11.27;1.60;;;;;;;;;;5281330;28;20025;-70
2023/03/30 11:24:33;;;;;;;7.77;1.23;;;;;;;;;;5280940;28;20486;-69
2023/03/30 11:27:17;;;;;;;8.93;1.13;;;;;;;;;;5280817;28;20372;-70
2023/03/30 11:29:52;;;;;;;10.88;1.23;;;;;;;;;;5280319;28;20032;-71
2023/03/30 11:32:40;;;;;;;9.20;1.35;;;;;;;;;;5281891;28;20111;-70
2023/03/30 11:35:29;;;;;;;8.97;1.50;;;;;;;;;;5282234;28;20023;-70
2023/03/30 11:38:19;;;;;;;6.80;1.10;;;;;;;;;;5281011;28;20809;-70
2023/03/30 11:40:57;;;;;;;7.53;0.82;;;;;;;;;;5281423;28;20398;-70
2023/03/30 11:43:29;;;;;;;8.10;1.25;;;;;;;;;;5281826;28;20437;-70
2023/03/30 11:46:04;;;;;;;9.38;0.90;;;;;;;;;;5280544;28;20020;-70
2023/03/30 11:49:14;;;;;;;11.95;0.93;;;;;;;;;;5281559;28;20033;-70
2023/03/30 11:52:04;;;;;;;8.35;1.23;;;;;;;;;;5236236;28;20156;-70
2023/03/30 11:54:48;;;;;;;7.22;1.20;;;;;;;;;;5237337;28;20041;-72
2023/03/30 11:57:31;;;;;;;10.40;1.48;;;;;;;;;;5271300;28;20113;-69
2023/03/30 12:00:09;;;;;;;6.68;1.13;;;;;;;;;;5280539;28;20016;-68
2023/03/30 12:02:43;;;;;;;9.50;1.25;;;;;;;;;;5281055;28;20029;-68
2023/03/30 12:05:18;;;;;;;7.10;0.95;;;;;;;;;;5281005;28;20029;-68
2023/03/30 12:07:49;;;;;;;7.05;0.93;;;;;;;;;;5280642;28;20035;-68
2023/03/30 12:10:27;;;;;;;6.95;0.90;;;;;;;;;;5281463;28;20522;-68
2023/03/30 12:12:59;;;;;;;8.38;1.05;;;;;;;;;;5280062;28;20115;-69
2023/03/30 12:15:30;;;;;;;5.43;0.75;;;;;;;;;;5281114;28;20490;-68
2023/03/30 12:18:15;;;;;;;7.05;1.00;;;;;;;;;;5281443;28;20025;-68
2023/03/30 12:20:51;;;;;;;5.70;1.17;;;;;;;;;;5280023;28;20031;-67
2023/03/30 12:23:25;;;;;;;6.07;0.65;;;;;;;;;;5281153;28;20021;-68
2023/03/30 12:26:16;;;;;;;8.02;1.40;;;;;;;;;;5280633;28;20433;-69
2023/03/30 12:28:55;;;;;;;6.47;0.80;;;;;;;;;;5280789;28;20494;-69
2023/03/30 12:31:45;;;;;;;9.80;1.35;;;;;;;;;;5281355;28;20020;-69
2023/03/30 12:34:17;;;;;;;7.25;0.85;;;;;;;;;;5280812;28;20138;-69
2023/03/30 12:36:53;;;;;;;10.10;0.77;;;;;;;;;;5280604;28;20133;-70
2023/03/30 12:39:29;;;;;;;7.40;1.00;;;;;;;;;;5285375;28;20021;-69
2023/03/30 12:42:14;;;;;;;7.47;0.90;;;;;;;;;;5283672;28;20016;-69
2023/03/30 12:44:53;;;;;;;8.05;0.93;;;;;;;;;;5284314;28;20041;-69
2023/03/30 12:47:29;;;;;;;11.68;1.27;;;;;;;;;;5283854;28;20033;-68
2023/03/30 12:50:01;;;;;;;8.15;1.27;;;;;;;;;;5284287;28;20093;-69
2023/03/30 12:52:50;;;;;;;7.97;1.08;;;;;;;;;;5284055;28;20048;-69
2023/03/30 12:55:43;;;;;;;4.40;0.70;;;;;;;;;;5284265;28;20095;-69
2023/03/30 12:58:29;;;;;;;6.30;0.80;;;;;;;;;;5284550;28;20028;-69
2023/03/30 13:01:13;;;;;;;7.88;1.10;;;;;;;;;;5284201;28;20024;-68
2023/03/30 13:03:51;;;;;;;7.68;0.95;;;;;;;;;;5283912;28;20021;-70
2023/03/30 13:06:29;;;;;;;5.10;0.77;;;;;;;;;;5284590;28;20471;-70
2023/03/30 13:09:22;;;;;;;6.97;1.00;;;;;;;;;;5282252;28;20298;-69
2023/03/30 13:11:53;;;;;;;8.18;0.90;;;;;;;;;;5276230;28;20103;-70
2023/03/30 13:14:34;;;;;;;6.80;0.90;;;;;;;;;;5284072;28;20424;-70
2023/03/30 13:17:09;;;;;;;9.02;1.23;;;;;;;;;;5283258;28;20021;-70
2023/03/30 13:19:42;;;;;;;6.95;0.98;;;;;;;;;;5277432;28;20047;-69
2023/03/30 13:22:14;;;;;;;9.38;1.38;;;;;;;;;;5273761;28;20056;-69
2023/03/30 13:24:51;;;;;;;6.78;0.90;;;;;;;;;;5265986;28;20060;-69
2023/03/30 13:27:33;;;;;;;6.93;1.25;;;;;;;;;;5283911;28;20020;-70
2023/03/30 13:30:07;;;;;;;7.93;0.98;;;;;;;;;;5281899;28;20074;-69
2023/03/30 13:32:38;;;;;;;11.90;1.50;;;;;;;;;;5283040;28;20096;-70
2023/03/30 13:35:28;;;;;;;10.60;1.73;;;;;;;;;;5283001;28;20440;-69
2023/03/30 13:38:05;;;;;;;8.90;1.25;;;;;;;;;;5282165;28;20764;-69
2023/03/30 13:40:44;;;;;;;11.35;1.80;;;;;;;;;;5283338;28;20421;-68
2023/03/30 13:43:22;;;;;;;9.07;1.42;;;;;;;;;;5283831;28;20031;-69
2023/03/30 13:45:57;;;;;;;6.80;1.30;;;;;;;;;;5282496;28;20025;-69
2023/03/30 13:48:54;;;;;;;7.88;0.90;;;;;;;;;;5282416;28;20028;-68
2023/03/30 13:51:28;;;;;;;4.82;0.73;;;;;;;;;;5271520;28;20420;-68
2023/03/30 13:54:02;;;;;;;10.80;1.55;;;;;;;;;;5280514;28;20112;-69
2023/03/30 13:56:35;;;;;;;7.13;1.45;;;;;;;;;;5280938;28;20055;-69
2023/03/30 13:59:11;;;;;;;8.85;1.02;;;;;;;;;;5280022;28;20025;-69
2023/03/30 14:01:52;;;;;;;13.82;1.45;;;;;;;;;;5280388;28;20024;-69
2023/03/30 14:04:27;;;;;;;8.65;1.10;;;;;;;;;;5282361;28;20429;-68
2023/03/30 14:07:12;;;;;;;7.90;1.40;;;;;;;;;;5281770;28;20040;-68
2023/03/30 14:10:00;;;;;;;8.35;1.42;;;;;;;;;;5281951;28;20020;-68
2023/03/30 14:12:32;;;;;;;9.02;1.20;;;;;;;;;;5282035;28;20021;-69
2023/03/30 14:15:14;;;;;;;4.47;0.70;;;;;;;;;;5282807;28;20462;-68
2023/03/30 14:17:47;;;;;;;4.68;0.73;;;;;;;;;;5282490;28;20087;-70
2023/03/30 14:20:28;;;;;;;6.72;0.70;;;;;;;;;;5282052;28;20518;-69
2023/03/30 14:22:59;;;;;;;6.05;0.60;;;;;;;;;;5282634;28;20051;-68
2023/03/30 14:25:33;;;;;;;5.43;0.80;;;;;;;;;;5282522;28;20100;-69
2023/03/30 14:28:12;;;;;;;4.75;0.73;;;;;;;;;;5281643;28;20360;-68
2023/03/30 14:30:43;;;;;;;;;;;;;;;;;;5282496;28;20092;-70
2023/03/30 14:33:16;;;;;;;5.05;0.68;;;;;;;;;;5281849;28;19904;-69
2023/03/30 14:35:48;;;;;;;6.55;0.90;;;;;;;;;;5281891;28;20016;-69
2023/03/30 14:38:21;;;;;;;10.50;1.15;;;;;;;;;;5282744;28;20459;-69
2023/03/30 14:40:53;;;;;;;9.52;1.10;;;;;;;;;;5280936;28;20096;-69
2023/03/30 14:43:26;;;;;;;8.02;1.23;;;;;;;;;;5282305;28;20423;-69
2023/03/30 14:46:01;;;;;;;12.98;1.50;;;;;;;;;;5282003;28;20408;-69
2023/03/30 14:48:35;;;;;;;12.07;0.90;;;;;;;;;;5281235;28;20506;-69
2023/03/30 14:51:18;;;;;;;7.63;0.82;;;;;;;;;;5281946;28;20009;-69
2023/03/30 14:53:50;;;;;;;6.10;0.70;;;;;;;;;;5280597;28;20174;-69
2023/03/30 14:56:22;;;;;;;6.47;0.50;;;;;;;;;;5282385;28;20488;-68
2023/03/30 14:58:54;;;;;;;5.82;0.85;;;;;;;;;;5281595;28;20158;-69
2023/03/30 15:01:29;;;;;;;8.52;1.10;;;;;;;;;;5280395;28;20021;-68
2023/03/30 15:04:06;;;;;;;7.75;0.88;;;;;;;;;;5281284;28;20113;-68
2023/03/30 15:06:38;;;;;;;6.30;0.63;;;;;;;;;;5281846;28;20020;-69
2023/03/30 15:09:15;;;;;;;6.70;0.80;;;;;;;;;;5281209;28;20021;-68
2023/03/30 15:11:48;;;;;;;5.75;1.13;;;;;;;;;;5281619;28;20021;-68
2023/03/30 15:14:21;;;;;;;9.30;1.58;;;;;;;;;;5281993;28;20052;-69
2023/03/30 15:16:54;;;;;;;7.03;0.70;;;;;;;;;;5280661;28;20099;-69
2023/03/30 15:19:30;;;;;;;4.40;0.70;;;;;;;;;;5281657;28;20024;-69
2023/03/30 15:22:21;;;;;;;5.53;1.05;;;;;;;;;;5280747;28;20013;-69
2023/03/30 15:24:54;;;;;;;6.47;0.95;;;;;;;;;;5280821;28;20043;-69
2023/03/30 15:27:26;;;;;;;7.22;1.00;;;;;;;;;;5281686;28;20027;-69
2023/03/30 15:29:58;;;;;;;5.32;0.93;;;;;;;;;;5280639;28;20367;-68